»·PEaware :: UAL600 KSAN-MPTO

UAL600 :: KSAN-MPTO

FLIGHT INFORMATION

Flight Status: Arrived
Operator:
United Airlines
More flights by this operator :: More flights under this callsign
Pilot: Petey Y. (19550)
Aircraft: Unknown
(B788)
More flights by this aircraft type
Origin: KSAN San Diego Intl-Lindbergh
United States
Destination: MPTO Tocumen Intl
Panama
More flights between these airports :: More routes between these airports
Route: BRDR7 IPL MXL UJ7 PPE UT10 ZCL UJ5 TIKEB UJ5 SLM UJ47 PBC MTT ASOKU UM419 AROVI VUMAN VUMA1A
File this flight plan on PilotEdge
Remarks: RMK / SIMBRIEF
Altitude:
(Current/Filed)
41,000ft
Speed:
(Current/Filed)
487kts
Departed: 11-Nov-19 05:01 PM
Arrived: 11-Nov-19 10:29 PM
Distance/Time
Traveled:
2528nm/5:27
Distance/Time
To Go:
Arrived

Flight Plot

Page will automatically refresh every two minutes.

Flight plan parsing failed; only flown route is shown


Map Options




Map Legend


Flown Route
Filed Route
Departure Airport
Arrival Airport
Navaid (VOR, NDB)
Fix

Horizontal Profiles

Position Reports

Time Latitude Longitude Heading Altitude Ground
Speed
11-Nov-19 16:59 32.728803 -115.734416 83 15681ft 374kts
11-Nov-19 17:00 32.739755 -115.612000 83 16770ft 380kts
11-Nov-19 17:01 32.737862 -115.488553 106 17854ft 385kts
11-Nov-19 17:02 32.693422 -115.372093 120 18961ft 392kts
11-Nov-19 17:03 32.639184 -115.258285 123 20069ft 394kts
11-Nov-19 17:04 32.576063 -115.150690 128 20954ft 407kts
11-Nov-19 17:05 32.507571 -115.043365 129 20998ft 404kts
11-Nov-19 17:06 32.439467 -114.937672 129 21422ft 392kts
11-Nov-19 17:07 32.373786 -114.835600 129 23229ft 399kts
11-Nov-19 17:08 32.304529 -114.728245 129 25039ft 418kts
11-Nov-19 17:09 32.232700 -114.617042 129 26847ft 431kts
11-Nov-19 17:10 32.159105 -114.503389 129 28647ft 441kts
11-Nov-19 17:11 32.083788 -114.387405 129 30449ft 446kts
11-Nov-19 17:12 32.008440 -114.271698 129 32239ft 445kts
11-Nov-19 17:13 31.933347 -114.156719 129 34034ft 437kts
11-Nov-19 17:14 31.860308 -114.045212 129 35819ft 422kts
11-Nov-19 17:15 31.790330 -113.938680 129 37592ft 400kts
11-Nov-19 17:16 31.724917 -113.839350 130 39343ft 368kts
11-Nov-19 17:17 31.665663 -113.749560 130 40844ft 327kts
11-Nov-19 17:18 31.610532 -113.666479 130 40991ft 321kts
11-Nov-19 17:19 31.555866 -113.584239 130 40992ft 319kts
11-Nov-19 17:20 31.501424 -113.502409 130 40992ft 316kts
11-Nov-19 17:21 31.447467 -113.421481 130 40619ft 327kts
11-Nov-19 17:22 31.384960 -113.328339 130 38813ft 400kts
11-Nov-19 17:23 31.307622 -113.217079 131 36560ft 484kts
11-Nov-19 17:24 31.216169 -113.087298 131 33839ft 529kts
11-Nov-19 17:25 31.126083 -112.959348 131 31310ft 492kts
11-Nov-19 17:26 31.040864 -112.838743 131 30995ft 477kts
11-Nov-19 17:27 30.956121 -112.719489 131 30994ft 481kts
11-Nov-19 17:28 30.869791 -112.598437 131 30994ft 487kts
11-Nov-19 17:29 30.782128 -112.475928 131 30995ft 500kts
11-Nov-19 17:30 30.692249 -112.350661 131 30993ft 504kts
11-Nov-19 17:31 30.602918 -112.226469 131 30993ft 501kts
11-Nov-19 17:32 30.513306 -112.102311 131 30993ft 501kts
11-Nov-19 17:33 30.423586 -111.978417 131 30993ft 501kts
11-Nov-19 17:34 30.333747 -111.854753 131 30993ft 501kts
11-Nov-19 17:35 30.244141 -111.731797 131 30993ft 501kts
11-Nov-19 17:36 30.153950 -111.608423 131 30993ft 501kts
11-Nov-19 17:37 30.063919 -111.485650 131 30993ft 501kts
11-Nov-19 17:38 29.973668 -111.362957 132 30993ft 501kts
11-Nov-19 17:39 29.883281 -111.240453 132 30993ft 501kts
11-Nov-19 17:40 29.792798 -111.118193 132 30993ft 501kts
11-Nov-19 17:41 29.702223 -110.996180 132 30993ft 501kts
11-Nov-19 17:42 29.611675 -110.874571 132 30993ft 501kts
11-Nov-19 17:43 29.520987 -110.753135 132 30993ft 501kts
11-Nov-19 17:44 29.429870 -110.631478 132 30993ft 501kts
11-Nov-19 17:45 29.339196 -110.510791 132 30993ft 501kts
11-Nov-19 17:46 29.248229 -110.390132 132 30993ft 501kts
11-Nov-19 17:47 29.156641 -110.268997 132 30993ft 501kts
11-Nov-19 17:48 29.065565 -110.148881 132 30993ft 501kts
11-Nov-19 17:49 28.973958 -110.028411 132 30993ft 501kts
11-Nov-19 17:50 28.882649 -109.908681 132 30993ft 501kts
11-Nov-19 17:51 28.791057 -109.788926 132 30993ft 501kts
11-Nov-19 17:52 28.699125 -109.669074 132 30993ft 501kts
11-Nov-19 17:53 28.607477 -109.549935 132 30993ft 501kts
11-Nov-19 17:54 28.515513 -109.430722 132 30993ft 501kts
11-Nov-19 17:55 28.423400 -109.311646 133 30993ft 501kts
11-Nov-19 17:56 28.331370 -109.192994 133 30993ft 501kts
11-Nov-19 17:57 28.239144 -109.074422 133 30993ft 501kts
11-Nov-19 17:58 28.146896 -108.956132 133 30993ft 501kts
11-Nov-19 17:59 28.054574 -108.838063 133 30993ft 501kts
11-Nov-19 18:00 27.962047 -108.720048 133 30993ft 501kts
11-Nov-19 18:02 27.869598 -108.602439 133 30993ft 501kts
11-Nov-19 18:03 27.777054 -108.485094 133 30993ft 501kts
11-Nov-19 18:04 27.683961 -108.367412 133 30993ft 501kts
11-Nov-19 18:05 27.591384 -108.250687 133 30993ft 501kts
11-Nov-19 18:06 27.498158 -108.133448 133 30993ft 501kts
11-Nov-19 18:07 27.405261 -108.016931 133 30993ft 501kts
11-Nov-19 18:08 27.312209 -107.900528 133 30993ft 501kts
11-Nov-19 18:09 27.218721 -107.783873 133 30993ft 501kts
11-Nov-19 18:10 27.125453 -107.667919 133 30993ft 501kts
11-Nov-19 18:11 27.032148 -107.552266 133 30993ft 501kts
11-Nov-19 18:12 26.938304 -107.436240 133 30993ft 501kts
11-Nov-19 18:13 26.844948 -107.321108 133 30993ft 500kts
11-Nov-19 18:14 26.751022 -107.205569 133 30993ft 500kts
11-Nov-19 18:15 26.657423 -107.090730 134 30993ft 500kts
11-Nov-19 18:16 26.563639 -106.975955 134 30993ft 500kts
11-Nov-19 18:17 26.469401 -106.860908 134 30993ft 500kts
11-Nov-19 18:18 26.375295 -106.746507 134 30993ft 500kts
11-Nov-19 18:19 26.281213 -106.632506 134 30993ft 500kts
11-Nov-19 18:20 26.186547 -106.518078 134 30993ft 500kts
11-Nov-19 18:20 26.108028 -106.423376 134 30993ft 500kts
11-Nov-19 18:22 25.998317 -106.291376 134 30993ft 500kts
11-Nov-19 18:23 25.903257 -106.177311 134 30993ft 500kts
11-Nov-19 18:23 25.824508 -106.083033 134 30993ft 500kts
11-Nov-19 18:25 25.713740 -105.950738 134 30993ft 500kts
11-Nov-19 18:25 25.634801 -105.856661 134 30993ft 500kts
11-Nov-19 18:26 25.540087 -105.743998 134 30993ft 500kts
11-Nov-19 18:28 25.429037 -105.612218 135 30993ft 500kts
11-Nov-19 18:28 25.349993 -105.518635 135 30993ft 500kts
11-Nov-19 18:29 25.254825 -105.406210 135 30993ft 500kts
11-Nov-19 18:30 25.159670 -105.294071 135 30993ft 500kts
11-Nov-19 18:31 25.064424 -105.182098 135 30993ft 500kts
11-Nov-19 18:32 24.969243 -105.070471 135 30993ft 500kts
11-Nov-19 18:33 24.873514 -104.958472 135 30993ft 500kts
11-Nov-19 18:34 24.778264 -104.847301 135 30993ft 500kts
11-Nov-19 18:35 24.682894 -104.736254 135 30993ft 500kts
11-Nov-19 18:36 24.586858 -104.624694 135 30993ft 500kts
11-Nov-19 18:37 24.491493 -104.514171 135 30993ft 500kts
11-Nov-19 18:38 24.395301 -104.402933 135 30993ft 500kts
11-Nov-19 18:39 24.299639 -104.292626 135 30993ft 500kts
11-Nov-19 18:40 24.203723 -104.182363 135 30993ft 500kts
11-Nov-19 18:41 24.107607 -104.072114 135 30993ft 500kts
11-Nov-19 18:42 24.011346 -103.961937 135 30993ft 500kts
11-Nov-19 18:43 23.915489 -103.852464 135 30993ft 500kts
11-Nov-19 18:44 23.818795 -103.742284 135 30993ft 500kts
11-Nov-19 18:45 23.722726 -103.633062 135 30993ft 500kts
11-Nov-19 18:46 23.626182 -103.523547 135 30993ft 500kts
11-Nov-19 18:47 23.529683 -103.414329 135 30993ft 500kts
11-Nov-19 18:48 23.433154 -103.305319 135 30993ft 500kts
11-Nov-19 18:49 23.336270 -103.196147 136 30993ft 500kts
11-Nov-19 18:50 23.239789 -103.087649 136 30993ft 500kts
11-Nov-19 18:51 23.142958 -102.978995 136 30993ft 500kts
11-Nov-19 18:52 23.045909 -102.870335 136 30993ft 500kts
11-Nov-19 18:53 22.949522 -102.762606 136 30993ft 500kts
11-Nov-19 18:54 22.853112 -102.654673 135 30993ft 500kts
11-Nov-19 18:55 22.756169 -102.545564 135 30993ft 500kts
11-Nov-19 18:56 22.659755 -102.437107 135 30993ft 500kts
11-Nov-19 18:57 22.563347 -102.328888 135 30993ft 500kts
11-Nov-19 18:58 22.466591 -102.220528 135 30993ft 500kts
11-Nov-19 18:59 22.370063 -102.112647 136 30993ft 500kts
11-Nov-19 19:00 22.273042 -102.004555 136 30993ft 500kts
11-Nov-19 19:01 22.176273 -101.896988 136 30993ft 500kts
11-Nov-19 19:02 22.079423 -101.789533 136 30993ft 500kts
11-Nov-19 19:03 21.981939 -101.681575 136 30993ft 500kts
11-Nov-19 19:04 21.885144 -101.574577 136 30993ft 500kts
11-Nov-19 19:05 21.788170 -101.467633 136 30993ft 500kts
11-Nov-19 19:06 21.690713 -101.360446 136 30993ft 500kts
11-Nov-19 19:07 21.593580 -101.253820 136 30993ft 500kts
11-Nov-19 19:08 21.496350 -101.147284 136 30993ft 500kts
11-Nov-19 19:09 21.398711 -101.040504 136 30993ft 500kts
11-Nov-19 19:10 21.301175 -100.934047 136 30993ft 500kts
11-Nov-19 19:11 21.203415 -100.827554 136 30993ft 500kts
11-Nov-19 19:12 21.105933 -100.721570 136 30993ft 500kts
11-Nov-19 19:13 21.008432 -100.615765 136 30993ft 500kts
11-Nov-19 19:14 20.910444 -100.509620 136 30993ft 500kts
11-Nov-19 19:15 20.812882 -100.404237 136 30993ft 500kts
11-Nov-19 19:16 20.715190 -100.298911 136 30993ft 500kts
11-Nov-19 19:17 20.617790 -100.192186 133 30993ft 501kts
11-Nov-19 19:18 20.528837 -100.078003 130 30993ft 502kts
11-Nov-19 19:19 20.443147 -99.961112 129 30993ft 502kts
11-Nov-19 19:20 20.356580 -99.843664 130 30993ft 502kts
11-Nov-19 19:21 20.269594 -99.727571 130 30993ft 502kts
11-Nov-19 19:22 20.182122 -99.611327 130 30993ft 502kts
11-Nov-19 19:23 20.094952 -99.495625 130 30993ft 502kts
11-Nov-19 19:24 20.007856 -99.380159 130 30993ft 502kts
11-Nov-19 19:25 19.920197 -99.264123 130 30993ft 501kts
11-Nov-19 19:26 19.832826 -99.148665 130 30993ft 501kts
11-Nov-19 19:27 19.744978 -99.033924 132 30993ft 501kts
11-Nov-19 19:28 19.651399 -98.923918 134 30993ft 500kts
11-Nov-19 19:29 19.556425 -98.816594 135 30993ft 500kts
11-Nov-19 19:30 19.460740 -98.708814 135 30993ft 500kts
11-Nov-19 19:31 19.365544 -98.601360 135 30993ft 500kts
11-Nov-19 19:32 19.270583 -98.494073 135 30993ft 500kts
11-Nov-19 19:33 19.176169 -98.385935 129 30989ft 502kts
11-Nov-19 19:34 19.118734 -98.251373 107 30995ft 507kts
11-Nov-19 19:35 19.081542 -98.106671 104 30993ft 507kts
11-Nov-19 19:36 19.046418 -97.962625 105 30993ft 506kts
11-Nov-19 19:37 19.010089 -97.819297 105 30993ft 506kts
11-Nov-19 19:38 18.972346 -97.675410 106 30993ft 506kts
11-Nov-19 19:39 18.934134 -97.532750 106 30993ft 506kts
11-Nov-19 19:40 18.895362 -97.389746 106 30993ft 506kts
11-Nov-19 19:41 18.856216 -97.246436 106 30993ft 506kts
11-Nov-19 19:42 18.817125 -97.104064 106 30993ft 506kts
11-Nov-19 19:43 18.777651 -96.960892 106 30993ft 506kts
11-Nov-19 19:44 18.738253 -96.818507 106 30993ft 506kts
11-Nov-19 19:45 18.698887 -96.676713 106 30993ft 506kts
11-Nov-19 19:46 18.659021 -96.533587 106 30993ft 506kts
11-Nov-19 19:47 18.619274 -96.391346 107 30993ft 506kts
11-Nov-19 19:48 18.579404 -96.249111 107 30993ft 506kts
11-Nov-19 19:49 18.539303 -96.106503 107 30993ft 506kts
11-Nov-19 19:50 18.499245 -95.964492 107 30993ft 506kts
11-Nov-19 19:51 18.458956 -95.822104 107 30993ft 506kts
11-Nov-19 19:52 18.418694 -95.680255 107 30993ft 506kts
11-Nov-19 19:53 18.378225 -95.538117 107 30993ft 506kts
11-Nov-19 19:54 18.337772 -95.396469 107 30994ft 507kts
11-Nov-19 19:55 18.296779 -95.253395 107 30994ft 512kts
11-Nov-19 19:56 18.255385 -95.109335 107 30993ft 513kts
11-Nov-19 19:57 18.213981 -94.965663 107 30993ft 513kts
11-Nov-19 19:58 18.172564 -94.822391 107 30993ft 513kts
11-Nov-19 19:59 18.130868 -94.678594 107 30993ft 513kts
11-Nov-19 20:00 18.079653 -94.539902 119 30995ft 511kts
11-Nov-19 20:01 18.004637 -94.412721 124 30993ft 510kts
11-Nov-19 20:02 17.925740 -94.289326 125 30993ft 509kts
11-Nov-19 20:03 17.846871 -94.165864 125 30993ft 509kts
11-Nov-19 20:04 17.768442 -94.041930 124 30993ft 509kts
11-Nov-19 20:05 17.690436 -93.917930 124 30993ft 510kts
11-Nov-19 20:06 17.612828 -93.794270 124 30993ft 510kts
11-Nov-19 20:07 17.534365 -93.669216 124 30993ft 510kts
11-Nov-19 20:08 17.456606 -93.545390 124 30993ft 510kts
11-Nov-19 20:09 17.378626 -93.421386 124 30993ft 510kts
11-Nov-19 20:10 17.300557 -93.297441 124 30993ft 509kts
11-Nov-19 20:11 17.222613 -93.173910 124 30993ft 509kts
11-Nov-19 20:12 17.144273 -93.049972 124 30993ft 509kts
11-Nov-19 20:13 17.066062 -92.926459 124 30993ft 509kts
11-Nov-19 20:14 16.987909 -92.803255 124 30993ft 509kts
11-Nov-19 20:15 16.909464 -92.679809 125 30993ft 509kts
11-Nov-19 20:17 16.831181 -92.556837 125 30993ft 509kts
11-Nov-19 20:18 16.752545 -92.433528 125 30993ft 509kts
11-Nov-19 20:19 16.673845 -92.310336 125 30993ft 509kts
11-Nov-19 20:20 16.595409 -92.187768 125 30993ft 509kts
11-Nov-19 20:21 16.516296 -92.064355 125 30993ft 509kts
11-Nov-19 20:22 16.437673 -91.941918 125 30993ft 509kts
11-Nov-19 20:23 16.359019 -91.819639 125 30993ft 509kts
11-Nov-19 20:24 16.279859 -91.696778 125 30993ft 509kts
11-Nov-19 20:25 16.200814 -91.574294 125 30993ft 509kts
11-Nov-19 20:26 16.122042 -91.452418 125 30993ft 509kts
11-Nov-19 20:27 16.044742 -91.328488 123 30993ft 510kts
11-Nov-19 20:28 15.970871 -91.202657 122 30993ft 510kts
11-Nov-19 20:29 15.897367 -91.076301 122 30993ft 510kts
11-Nov-19 20:30 15.823986 -90.950417 122 30993ft 510kts
11-Nov-19 20:31 15.750282 -90.824387 122 30993ft 510kts
11-Nov-19 20:32 15.676543 -90.698653 122 30993ft 510kts
11-Nov-19 20:33 15.602808 -90.573213 122 30993ft 510kts
11-Nov-19 20:34 15.528747 -90.447474 122 30993ft 510kts
11-Nov-19 20:35 15.454659 -90.321919 122 30993ft 510kts
11-Nov-19 20:35 15.393062 -90.217700 122 30993ft 510kts
11-Nov-19 20:37 15.306382 -90.071289 123 30993ft 510kts
11-Nov-19 20:38 15.232021 -89.945915 123 30993ft 510kts
11-Nov-19 20:38 15.170092 -89.841658 123 30993ft 510kts
11-Nov-19 20:39 15.095945 -89.717020 123 30993ft 510kts
11-Nov-19 20:41 15.009022 -89.571161 123 30993ft 510kts
11-Nov-19 20:41 14.946988 -89.467235 123 30993ft 510kts
11-Nov-19 20:43 14.859777 -89.321364 123 30993ft 510kts
11-Nov-19 20:43 14.797680 -89.217665 123 30993ft 510kts
11-Nov-19 20:44 14.723045 -89.093207 123 30993ft 510kts
11-Nov-19 20:46 14.635629 -88.947686 123 30993ft 510kts
11-Nov-19 20:46 14.573242 -88.843995 123 30993ft 510kts
11-Nov-19 20:47 14.498471 -88.719897 123 30993ft 510kts
11-Nov-19 20:48 14.423334 -88.595384 123 30993ft 510kts
11-Nov-19 20:49 14.348524 -88.471604 123 30993ft 510kts
11-Nov-19 20:50 14.273463 -88.347599 123 30993ft 510kts
11-Nov-19 20:51 14.198188 -88.223428 123 30993ft 510kts
11-Nov-19 20:52 14.122930 -88.099473 123 30993ft 510kts
11-Nov-19 20:53 14.047467 -87.975367 123 30993ft 510kts
11-Nov-19 20:54 13.972451 -87.852181 123 30993ft 510kts
11-Nov-19 20:55 13.896876 -87.728260 123 30993ft 510kts
11-Nov-19 20:56 13.821235 -87.604414 123 30993ft 510kts
11-Nov-19 20:57 13.745945 -87.481323 123 30993ft 510kts
11-Nov-19 20:58 13.670396 -87.357989 123 30993ft 510kts
11-Nov-19 20:59 13.594538 -87.234329 123 30993ft 510kts
11-Nov-19 21:00 13.518960 -87.111304 123 30993ft 510kts
11-Nov-19 21:01 13.443317 -86.988348 123 30993ft 510kts
11-Nov-19 21:02 13.367366 -86.865067 123 30993ft 510kts
11-Nov-19 21:03 13.291574 -86.742219 123 30993ft 510kts
11-Nov-19 21:04 13.215528 -86.619131 123 30993ft 510kts
11-Nov-19 21:05 13.139563 -86.496344 123 30993ft 510kts
11-Nov-19 21:06 13.063621 -86.373765 123 30993ft 510kts
11-Nov-19 21:07 12.987186 -86.250562 123 30993ft 510kts
11-Nov-19 21:08 12.911046 -86.128000 123 30993ft 510kts
11-Nov-19 21:09 12.834964 -86.005698 123 30993ft 510kts
11-Nov-19 21:10 12.758539 -85.883012 124 30993ft 510kts
11-Nov-19 21:11 12.682512 -85.761126 124 30993ft 510kts
11-Nov-19 21:12 12.605999 -85.638625 124 30993ft 510kts
11-Nov-19 21:13 12.529474 -85.516266 124 30993ft 510kts
11-Nov-19 21:14 12.453117 -85.394339 124 30993ft 510kts
11-Nov-19 21:15 12.376503 -85.272158 124 30993ft 510kts
11-Nov-19 21:16 12.299751 -85.149916 124 30993ft 510kts
11-Nov-19 21:17 12.223208 -85.028164 124 30993ft 510kts
11-Nov-19 21:18 12.146340 -84.906052 124 30993ft 510kts
11-Nov-19 21:19 12.069752 -84.784537 124 30993ft 510kts
11-Nov-19 21:20 11.993041 -84.662981 124 30993ft 510kts
11-Nov-19 21:21 11.915856 -84.540826 124 30993ft 510kts
11-Nov-19 21:22 11.839156 -84.419592 124 30993ft 510kts
11-Nov-19 21:23 11.762181 -84.298070 124 30993ft 510kts
11-Nov-19 21:24 11.684457 -84.175549 124 30175ft 519kts
11-Nov-19 21:25 11.608024 -84.055100 124 28466ft 500kts
11-Nov-19 21:26 11.535559 -83.940957 124 26677ft 466kts
11-Nov-19 21:27 11.466408 -83.832257 124 24876ft 450kts
11-Nov-19 21:28 11.399175 -83.726761 124 23076ft 438kts
11-Nov-19 21:29 11.333361 -83.623594 124 21269ft 429kts
11-Nov-19 21:30 11.268018 -83.521327 124 20995ft 437kts
11-Nov-19 21:31 11.201404 -83.417102 124 20993ft 441kts
11-Nov-19 21:32 11.134468 -83.311874 124 20993ft 441kts
11-Nov-19 21:33 11.068278 -83.207025 124 20993ft 441kts
11-Nov-19 21:34 11.002127 -83.102148 124 20993ft 441kts
11-Nov-19 21:35 10.935442 -82.996520 124 20993ft 441kts
11-Nov-19 21:36 10.869165 -82.891655 124 20993ft 441kts
11-Nov-19 21:37 10.802914 -82.786931 124 20993ft 441kts
11-Nov-19 21:38 10.736241 -82.681622 124 20993ft 441kts
11-Nov-19 21:39 10.670396 -82.576379 123 20993ft 441kts
11-Nov-19 21:40 10.604892 -82.470594 123 20993ft 441kts
11-Nov-19 21:41 10.539594 -82.365064 123 20993ft 441kts
11-Nov-19 21:42 10.474296 -82.259641 123 20993ft 441kts
11-Nov-19 21:43 10.408783 -82.153992 123 20993ft 441kts
11-Nov-19 21:44 10.343434 -82.048720 123 20993ft 441kts
11-Nov-19 21:45 10.277995 -81.943404 123 20993ft 441kts
11-Nov-19 21:46 10.212167 -81.837564 123 20993ft 441kts
11-Nov-19 21:47 10.146601 -81.732244 123 20993ft 441kts
11-Nov-19 21:48 10.081077 -81.627087 124 20993ft 441kts
11-Nov-19 21:49 10.015384 -81.521755 124 20993ft 441kts
11-Nov-19 21:50 9.949817 -81.416719 124 20993ft 441kts
11-Nov-19 21:51 9.884140 -81.311602 124 20993ft 441kts
11-Nov-19 21:52 9.818262 -81.206252 124 20993ft 441kts
11-Nov-19 21:53 9.752685 -81.101473 124 20993ft 441kts
11-Nov-19 21:54 9.686585 -80.995942 124 20993ft 441kts
11-Nov-19 21:55 9.620930 -80.891187 124 20993ft 441kts
11-Nov-19 21:56 9.541307 -80.798059 139 20995ft 438kts
11-Nov-19 21:57 9.448510 -80.718726 143 20993ft 435kts
11-Nov-19 21:58 9.360976 -80.646270 143 19220ft 385kts
11-Nov-19 21:59 9.281981 -80.580172 143 17218ft 355kts
11-Nov-19 22:00 9.208282 -80.517884 143 15353ft 333kts
11-Nov-19 22:01 9.139291 -80.459338 143 13611ft 315kts
11-Nov-19 22:02 9.076833 -80.399453 124 11921ft 311kts
11-Nov-19 22:03 9.048343 -80.317516 104 10721ft 303kts
11-Nov-19 22:04 9.031691 -80.233471 101 10210ft 305kts
11-Nov-19 22:05 9.016186 -80.149808 101 8997ft 301kts
11-Nov-19 22:06 9.002254 -80.075154 101 7574ft 247kts
11-Nov-19 22:07 8.989876 -80.009502 101 6522ft 227kts
11-Nov-19 22:08 8.977804 -79.945709 101 6495ft 235kts
11-Nov-19 22:09 8.965530 -79.880721 101 6494ft 235kts
11-Nov-19 22:10 8.953061 -79.815021 100 5971ft 243kts
11-Nov-19 22:11 8.941165 -79.752453 99 4746ft 212kts
11-Nov-19 22:12 8.930452 -79.695461 99 3683ft 198kts
11-Nov-19 22:13 8.920593 -79.643395 100 2587ft 178kts
11-Nov-19 22:14 8.913715 -79.596498 81 1906ft 158kts
11-Nov-19 22:15 8.941602 -79.554413 50 1543ft 192kts
11-Nov-19 22:16 8.973621 -79.518916 45 940ft 139kts
11-Nov-19 22:17 8.999827 -79.493392 43 1054ft 148kts
11-Nov-19 22:18 9.019481 -79.455937 65 1006ft 157kts
11-Nov-19 22:19 9.042755 -79.421176 52 996ft 144kts
11-Nov-19 22:20 9.072375 -79.387578 35 365ft 189kts
11-Nov-19 22:21 9.114939 -79.365112 24 791ft 155kts
11-Nov-19 22:22 9.143888 -79.337494 68 1547ft 127kts
11-Nov-19 22:23 9.171462 -79.306617 91 2538ft 163kts
11-Nov-19 22:24 9.174139 -79.257302 114 4237ft 217kts
11-Nov-19 22:25 9.128613 -79.269217 266 6274ft 232kts
11-Nov-19 22:26 9.118577 -79.341920 236 2381ft 244kts
11-Nov-19 22:27 9.075638 -79.375951 210 467ft 163kts
11-Nov-19 22:28 9.055361 -79.388163 215 148ft 17kts
11-Nov-19 22:29 9.055056 -79.389034 289 148ft 0kts
11-Nov-19 22:30 9.056919 -79.388724 28 148ft 11kts
11-Nov-19 22:31 9.057942 -79.388123 29 148ft 9kts
11-Nov-19 22:32 9.061482 -79.386055 29 148ft 18kts
11-Nov-19 22:33 9.064199 -79.385393 344 148ft 9kts
11-Nov-19 22:35 9.064448 -79.385951 285 148ft 0kts
11-Nov-19 22:36 9.064463 -79.386044 279 148ft 0kts
11-Nov-19 22:37 9.064463 -79.386047 279 148ft 0kts
11-Nov-19 22:38 9.064464 -79.386050 279 148ft 0kts
11-Nov-19 22:39 9.064464 -79.386053 279 148ft 0kts
11-Nov-19 22:40 9.064464 -79.386053 279 148ft 0kts
11-Nov-19 22:41 9.064464 -79.386053 279 148ft 0kts
11-Nov-19 22:42 9.064464 -79.386053 279 148ft 0kts
11-Nov-19 22:43 9.064464 -79.386053 279 148ft 0kts

Navigation Log

Ident Type
Flight plan parsing failed, navigation log unavailable